sensor_id;sensor_type;location;lat;lon;timestamp;P1;durP1;ratioP1;P2;durP2;ratioP2
8656;SDS011;4366;50.764;7.184;2022-10-22T07:16:44;5.40;;;4.90;;
8656;SDS011;4366;50.764;7.184;2022-10-22T07:21:48;7.83;;;4.60;;
8656;SDS011;4366;50.764;7.184;2022-10-22T14:39:48;2.00;;;1.07;;
8656;SDS011;4366;50.764;7.184;2022-10-22T14:44:53;2.83;;;0.80;;
8656;SDS011;4366;50.764;7.184;2022-10-22T14:49:54;1.17;;;0.67;;
8656;SDS011;4366;50.764;7.184;2022-10-22T14:54:56;1.57;;;0.80;;
8656;SDS011;4366;50.764;7.184;2022-10-22T14:59:58;2.57;;;1.00;;
8656;SDS011;4366;50.764;7.184;2022-10-22T15:05:00;3.10;;;1.20;;
8656;SDS011;4366;50.764;7.184;2022-10-22T15:10:02;1.40;;;0.97;;
8656;SDS011;4366;50.764;7.184;2022-10-22T15:15:06;2.73;;;1.00;;
8656;SDS011;4366;50.764;7.184;2022-10-22T15:20:08;2.60;;;1.33;;
8656;SDS011;4366;50.764;7.184;2022-10-22T15:25:10;1.20;;;0.90;;
8656;SDS011;4366;50.764;7.184;2022-10-22T15:30:13;1.83;;;1.10;;
8656;SDS011;4366;50.764;7.184;2022-10-22T15:35:15;4.53;;;1.40;;
8656;SDS011;4366;50.764;7.184;2022-10-22T15:40:17;1.83;;;1.30;;
8656;SDS011;4366;50.764;7.184;2022-10-22T15:45:18;2.13;;;1.17;;
8656;SDS011;4366;50.764;7.184;2022-10-22T15:50:23;1.93;;;1.27;;
8656;SDS011;4366;50.764;7.184;2022-10-22T15:55:25;2.27;;;1.57;;
8656;SDS011;4366;50.764;7.184;2022-10-22T16:00:27;1.67;;;1.13;;
8656;SDS011;4366;50.764;7.184;2022-10-22T16:05:29;1.27;;;1.17;;
8656;SDS011;4366;50.764;7.184;2022-10-22T16:10:30;2.30;;;1.90;;
8656;SDS011;4366;50.764;7.184;2022-10-22T16:15:33;6.03;;;1.80;;
8656;SDS011;4366;50.764;7.184;2022-10-22T16:20:38;3.20;;;1.57;;
8656;SDS011;4366;50.764;7.184;2022-10-22T16:25:40;2.23;;;1.67;;
8656;SDS011;4366;50.764;7.184;2022-10-22T16:30:42;1.97;;;1.80;;
8656;SDS011;4366;50.764;7.184;2022-10-22T16:35:44;2.60;;;1.87;;
8656;SDS011;4366;50.764;7.184;2022-10-22T16:40:45;3.50;;;2.17;;
8656;SDS011;4366;50.764;7.184;2022-10-22T16:45:47;3.60;;;2.80;;
8656;SDS011;4366;50.764;7.184;2022-10-22T16:50:50;3.47;;;2.70;;
8656;SDS011;4366;50.764;7.184;2022-10-22T16:55:52;3.20;;;2.87;;
8656;SDS011;4366;50.764;7.184;2022-10-22T17:00:54;5.93;;;3.40;;
8656;SDS011;4366;50.764;7.184;2022-10-22T17:05:59;5.70;;;3.77;;
8656;SDS011;4366;50.764;7.184;2022-10-22T17:11:08;5.37;;;3.50;;
8656;SDS011;4366;50.764;7.184;2022-10-22T17:16:18;5.30;;;3.10;;
8656;SDS011;4366;50.764;7.184;2022-10-22T17:21:21;3.27;;;2.60;;
8656;SDS011;4366;50.764;7.184;2022-10-22T17:26:24;5.17;;;2.67;;
8656;SDS011;4366;50.764;7.184;2022-10-22T17:31:28;3.30;;;2.50;;
8656;SDS011;4366;50.764;7.184;2022-10-22T17:36:37;4.07;;;2.60;;
8656;SDS011;4366;50.764;7.184;2022-10-22T17:47:02;6.07;;;3.40;;
8656;SDS011;4366;50.764;7.184;2022-10-22T17:52:07;6.20;;;3.27;;
8656;SDS011;4366;50.764;7.184;2022-10-22T17:57:11;5.07;;;3.30;;
8656;SDS011;4366;50.764;7.184;2022-10-22T18:02:14;6.97;;;3.77;;
8656;SDS011;4366;50.764;7.184;2022-10-22T18:07:17;6.00;;;3.30;;
8656;SDS011;4366;50.764;7.184;2022-10-22T18:12:21;4.03;;;2.83;;
8656;SDS011;4366;50.764;7.184;2022-10-22T18:17:23;4.07;;;2.90;;
8656;SDS011;4366;50.764;7.184;2022-10-22T18:22:25;3.70;;;3.30;;
8656;SDS011;4366;50.764;7.184;2022-10-22T18:27:27;4.40;;;3.10;;
8656;SDS011;4366;50.764;7.184;2022-10-22T18:32:30;5.37;;;3.30;;
8656;SDS011;4366;50.764;7.184;2022-10-22T18:37:32;4.77;;;4.30;;
8656;SDS011;4366;50.764;7.184;2022-10-22T18:42:36;5.80;;;3.93;;
8656;SDS011;4366;50.764;7.184;2022-10-22T18:52:45;13.50;;;7.80;;
8656;SDS011;4366;50.764;7.184;2022-10-22T18:57:47;7.33;;;5.30;;
8656;SDS011;4366;50.764;7.184;2022-10-22T19:02:49;10.20;;;5.40;;
8656;SDS011;4366;50.764;7.184;2022-10-22T19:07:55;6.50;;;4.17;;
8656;SDS011;4366;50.764;7.184;2022-10-22T19:12:57;7.43;;;5.10;;
8656;SDS011;4366;50.764;7.184;2022-10-22T19:17:59;12.40;;;4.97;;
8656;SDS011;4366;50.764;7.184;2022-10-22T19:23:01;6.20;;;4.67;;
8656;SDS011;4366;50.764;7.184;2022-10-22T19:28:09;7.30;;;5.27;;
8656;SDS011;4366;50.764;7.184;2022-10-22T19:33:11;5.40;;;4.30;;
8656;SDS011;4366;50.764;7.184;2022-10-22T19:38:13;4.20;;;3.83;;
8656;SDS011;4366;50.764;7.184;2022-10-22T19:43:15;8.80;;;4.63;;
8656;SDS011;4366;50.764;7.184;2022-10-22T19:48:19;9.33;;;4.87;;
8656;SDS011;4366;50.764;7.184;2022-10-22T19:53:21;7.07;;;4.00;;
8656;SDS011;4366;50.764;7.184;2022-10-22T19:58:23;7.80;;;5.33;;
8656;SDS011;4366;50.764;7.184;2022-10-22T20:03:25;7.03;;;5.27;;
8656;SDS011;4366;50.764;7.184;2022-10-22T20:08:27;6.27;;;5.10;;
8656;SDS011;4366;50.764;7.184;2022-10-22T20:13:29;6.03;;;4.73;;
8656;SDS011;4366;50.764;7.184;2022-10-22T20:18:31;5.00;;;3.60;;
8656;SDS011;4366;50.764;7.184;2022-10-22T20:23:34;6.87;;;4.20;;
8656;SDS011;4366;50.764;7.184;2022-10-22T20:28:36;6.27;;;3.90;;
8656;SDS011;4366;50.764;7.184;2022-10-22T20:33:39;5.67;;;3.73;;
8656;SDS011;4366;50.764;7.184;2022-10-22T20:38:40;5.77;;;3.17;;
8656;SDS011;4366;50.764;7.184;2022-10-22T20:43:43;3.30;;;2.73;;
8656;SDS011;4366;50.764;7.184;2022-10-22T20:48:45;5.83;;;3.30;;
8656;SDS011;4366;50.764;7.184;2022-10-22T20:53:47;6.07;;;3.50;;
8656;SDS011;4366;50.764;7.184;2022-10-22T20:58:49;3.23;;;2.93;;
8656;SDS011;4366;50.764;7.184;2022-10-22T21:03:57;3.40;;;2.93;;
8656;SDS011;4366;50.764;7.184;2022-10-22T21:08:59;3.90;;;2.50;;
8656;SDS011;4366;50.764;7.184;2022-10-22T21:14:00;4.70;;;2.93;;
8656;SDS011;4366;50.764;7.184;2022-10-22T21:19:02;4.63;;;3.00;;
8656;SDS011;4366;50.764;7.184;2022-10-22T21:24:04;5.33;;;3.03;;
8656;SDS011;4366;50.764;7.184;2022-10-22T21:29:06;5.07;;;3.03;;
8656;SDS011;4366;50.764;7.184;2022-10-22T21:34:08;3.03;;;2.70;;
8656;SDS011;4366;50.764;7.184;2022-10-22T21:39:13;3.23;;;2.90;;
8656;SDS011;4366;50.764;7.184;2022-10-22T21:44:14;3.90;;;2.90;;
8656;SDS011;4366;50.764;7.184;2022-10-22T21:49:16;5.73;;;3.13;;
8656;SDS011;4366;50.764;7.184;2022-10-22T21:54:18;6.07;;;3.37;;
8656;SDS011;4366;50.764;7.184;2022-10-22T21:59:19;4.90;;;3.00;;
8656;SDS011;4366;50.764;7.184;2022-10-22T22:04:21;6.53;;;3.40;;
8656;SDS011;4366;50.764;7.184;2022-10-22T22:09:22;4.20;;;2.73;;
8656;SDS011;4366;50.764;7.184;2022-10-22T22:14:24;6.63;;;3.50;;
8656;SDS011;4366;50.764;7.184;2022-10-22T22:19:25;3.77;;;3.07;;
8656;SDS011;4366;50.764;7.184;2022-10-22T22:24:27;6.10;;;3.37;;
8656;SDS011;4366;50.764;7.184;2022-10-22T22:29:28;5.03;;;3.33;;
8656;SDS011;4366;50.764;7.184;2022-10-22T22:34:31;6.00;;;3.40;;
8656;SDS011;4366;50.764;7.184;2022-10-22T22:39:33;5.03;;;2.87;;
8656;SDS011;4366;50.764;7.184;2022-10-22T22:44:37;6.03;;;3.50;;
8656;SDS011;4366;50.764;7.184;2022-10-22T22:49:39;4.60;;;3.60;;
8656;SDS011;4366;50.764;7.184;2022-10-22T22:54:41;4.47;;;3.27;;
8656;SDS011;4366;50.764;7.184;2022-10-22T22:59:42;3.83;;;3.43;;
8656;SDS011;4366;50.764;7.184;2022-10-22T23:04:44;6.03;;;3.07;;
8656;SDS011;4366;50.764;7.184;2022-10-22T23:09:46;6.47;;;3.57;;
8656;SDS011;4366;50.764;7.184;2022-10-22T23:14:49;4.23;;;3.67;;
8656;SDS011;4366;50.764;7.184;2022-10-22T23:19:54;6.00;;;3.20;;
8656;SDS011;4366;50.764;7.184;2022-10-22T23:24:55;3.50;;;3.10;;
8656;SDS011;4366;50.764;7.184;2022-10-22T23:29:57;4.93;;;2.90;;
8656;SDS011;4366;50.764;7.184;2022-10-22T23:34:59;4.23;;;3.03;;
8656;SDS011;4366;50.764;7.184;2022-10-22T23:40:00;7.53;;;3.10;;
8656;SDS011;4366;50.764;7.184;2022-10-22T23:45:02;3.10;;;2.90;;
8656;SDS011;4366;50.764;7.184;2022-10-22T23:50:04;4.63;;;4.23;;
8656;SDS011;4366;50.764;7.184;2022-10-22T23:55:06;3.43;;;2.77;;
